sensor_id;sensor_type;location;lat;lon;timestamp;P1;durP1;ratioP1;P2;durP2;ratioP2
2211;SDS011;48849;48.758;9.158;2024-02-15T00:01:07;4.00;;;2.55;;
2211;SDS011;48849;48.758;9.158;2024-02-15T00:03:34;5.75;;;1.80;;
2211;SDS011;48849;48.758;9.158;2024-02-15T00:06:01;3.05;;;1.92;;
2211;SDS011;48849;48.758;9.158;2024-02-15T00:08:30;3.08;;;2.33;;
2211;SDS011;48849;48.758;9.158;2024-02-15T00:10:57;4.03;;;1.73;;
2211;SDS011;48849;48.758;9.158;2024-02-15T00:13:24;3.75;;;2.20;;
2211;SDS011;48849;48.758;9.158;2024-02-15T00:15:51;3.22;;;2.20;;
2211;SDS011;48849;48.758;9.158;2024-02-15T00:18:18;3.45;;;1.80;;
2211;SDS011;48849;48.758;9.158;2024-02-15T00:20:46;3.35;;;1.80;;
2211;SDS011;48849;48.758;9.158;2024-02-15T00:23:14;2.85;;;1.80;;
2211;SDS011;48849;48.758;9.158;2024-02-15T00:25:43;2.90;;;1.90;;
2211;SDS011;48849;48.758;9.158;2024-02-15T00:28:10;1.90;;;1.70;;
2211;SDS011;48849;48.758;9.158;2024-02-15T00:30:37;2.20;;;2.00;;
2211;SDS011;48849;48.758;9.158;2024-02-15T00:33:04;4.57;;;1.60;;
2211;SDS011;48849;48.758;9.158;2024-02-15T00:35:32;2.42;;;1.83;;
2211;SDS011;48849;48.758;9.158;2024-02-15T00:37:59;3.35;;;2.03;;
2211;SDS011;48849;48.758;9.158;2024-02-15T00:40:26;2.45;;;1.88;;
2211;SDS011;48849;48.758;9.158;2024-02-15T00:42:54;5.63;;;2.00;;
2211;SDS011;48849;48.758;9.158;2024-02-15T00:45:21;3.47;;;1.60;;
2211;SDS011;48849;48.758;9.158;2024-02-15T00:47:48;6.50;;;2.00;;
2211;SDS011;48849;48.758;9.158;2024-02-15T00:50:16;1.80;;;1.50;;
2211;SDS011;48849;48.758;9.158;2024-02-15T00:52:43;2.78;;;1.60;;
2211;SDS011;48849;48.758;9.158;2024-02-15T00:55:10;2.42;;;1.98;;
2211;SDS011;48849;48.758;9.158;2024-02-15T00:57:37;5.00;;;1.80;;
2211;SDS011;48849;48.758;9.158;2024-02-15T01:00:05;3.65;;;1.90;;
2211;SDS011;48849;48.758;9.158;2024-02-15T01:02:34;3.30;;;1.80;;
2211;SDS011;48849;48.758;9.158;2024-02-15T01:05:02;1.83;;;1.63;;
2211;SDS011;48849;48.758;9.158;2024-02-15T01:07:29;3.40;;;1.95;;
2211;SDS011;48849;48.758;9.158;2024-02-15T01:09:56;1.80;;;1.60;;
2211;SDS011;48849;48.758;9.158;2024-02-15T01:12:23;4.03;;;1.73;;
2211;SDS011;48849;48.758;9.158;2024-02-15T01:14:50;2.33;;;1.40;;
2211;SDS011;48849;48.758;9.158;2024-02-15T01:17:18;7.15;;;1.73;;
2211;SDS011;48849;48.758;9.158;2024-02-15T01:19:45;3.85;;;2.05;;
2211;SDS011;48849;48.758;9.158;2024-02-15T01:22:12;2.63;;;1.65;;
2211;SDS011;48849;48.758;9.158;2024-02-15T01:24:38;1.75;;;1.50;;
2211;SDS011;48849;48.758;9.158;2024-02-15T01:27:06;4.70;;;1.70;;
2211;SDS011;48849;48.758;9.158;2024-02-15T01:29:35;2.78;;;1.40;;
2211;SDS011;48849;48.758;9.158;2024-02-15T01:32:02;2.42;;;1.60;;
2211;SDS011;48849;48.758;9.158;2024-02-15T01:34:31;2.67;;;1.52;;
2211;SDS011;48849;48.758;9.158;2024-02-15T01:36:58;4.03;;;1.70;;
2211;SDS011;48849;48.758;9.158;2024-02-15T01:39:25;3.75;;;2.22;;
2211;SDS011;48849;48.758;9.158;2024-02-15T01:41:52;2.08;;;1.60;;
2211;SDS011;48849;48.758;9.158;2024-02-15T01:44:21;3.42;;;1.50;;
2211;SDS011;48849;48.758;9.158;2024-02-15T01:46:49;2.80;;;1.80;;
2211;SDS011;48849;48.758;9.158;2024-02-15T01:49:17;1.63;;;1.50;;
2211;SDS011;48849;48.758;9.158;2024-02-15T01:51:48;4.95;;;1.70;;
2211;SDS011;48849;48.758;9.158;2024-02-15T01:54:17;2.15;;;1.80;;
2211;SDS011;48849;48.758;9.158;2024-02-15T01:56:45;2.55;;;1.40;;
2211;SDS011;48849;48.758;9.158;2024-02-15T01:59:13;3.55;;;1.95;;
2211;SDS011;48849;48.758;9.158;2024-02-15T02:01:41;2.30;;;1.75;;
2211;SDS011;48849;48.758;9.158;2024-02-15T02:04:10;2.50;;;1.80;;
2211;SDS011;48849;48.758;9.158;2024-02-15T02:06:38;7.95;;;1.90;;
2211;SDS011;48849;48.758;9.158;2024-02-15T02:09:07;2.60;;;1.85;;
2211;SDS011;48849;48.758;9.158;2024-02-15T02:11:37;3.55;;;2.05;;
2211;SDS011;48849;48.758;9.158;2024-02-15T02:14:04;2.95;;;2.10;;
2211;SDS011;48849;48.758;9.158;2024-02-15T02:16:31;4.07;;;1.90;;
2211;SDS011;48849;48.758;9.158;2024-02-15T02:18:58;1.98;;;1.63;;
2211;SDS011;48849;48.758;9.158;2024-02-15T02:21:26;3.40;;;1.80;;
2211;SDS011;48849;48.758;9.158;2024-02-15T02:23:55;2.80;;;1.67;;
2211;SDS011;48849;48.758;9.158;2024-02-15T02:26:25;2.95;;;2.10;;
2211;SDS011;48849;48.758;9.158;2024-02-15T02:28:52;3.47;;;1.70;;
2211;SDS011;48849;48.758;9.158;2024-02-15T02:31:19;7.53;;;1.70;;
2211;SDS011;48849;48.758;9.158;2024-02-15T02:33:47;2.15;;;1.90;;
2211;SDS011;48849;48.758;9.158;2024-02-15T02:36:17;2.80;;;1.95;;
2211;SDS011;48849;48.758;9.158;2024-02-15T02:38:44;3.03;;;2.17;;
2211;SDS011;48849;48.758;9.158;2024-02-15T02:41:14;1.65;;;1.55;;
2211;SDS011;48849;48.758;9.158;2024-02-15T02:43:43;3.67;;;1.80;;
2211;SDS011;48849;48.758;9.158;2024-02-15T02:46:10;2.90;;;1.88;;
2211;SDS011;48849;48.758;9.158;2024-02-15T02:48:37;2.47;;;1.65;;
2211;SDS011;48849;48.758;9.158;2024-02-15T02:51:05;4.15;;;1.70;;
2211;SDS011;48849;48.758;9.158;2024-02-15T02:53:32;2.10;;;1.90;;
2211;SDS011;48849;48.758;9.158;2024-02-15T02:55:59;3.25;;;2.05;;
2211;SDS011;48849;48.758;9.158;2024-02-15T02:58:27;4.38;;;2.40;;
2211;SDS011;48849;48.758;9.158;2024-02-15T03:00:55;2.70;;;1.92;;
2211;SDS011;48849;48.758;9.158;2024-02-15T03:03:25;5.75;;;1.50;;
2211;SDS011;48849;48.758;9.158;2024-02-15T03:05:52;2.90;;;1.90;;
2211;SDS011;48849;48.758;9.158;2024-02-15T03:08:20;3.58;;;2.05;;
2211;SDS011;48849;48.758;9.158;2024-02-15T03:10:47;2.00;;;1.73;;
2211;SDS011;48849;48.758;9.158;2024-02-15T03:13:14;4.40;;;2.05;;
2211;SDS011;48849;48.758;9.158;2024-02-15T03:15:40;2.65;;;1.60;;
2211;SDS011;48849;48.758;9.158;2024-02-15T03:18:10;2.95;;;2.08;;
2211;SDS011;48849;48.758;9.158;2024-02-15T03:20:37;2.33;;;1.90;;
2211;SDS011;48849;48.758;9.158;2024-02-15T03:23:04;3.97;;;2.10;;
2211;SDS011;48849;48.758;9.158;2024-02-15T03:25:31;1.83;;;1.65;;
2211;SDS011;48849;48.758;9.158;2024-02-15T03:28:00;1.98;;;1.75;;
2211;SDS011;48849;48.758;9.158;2024-02-15T03:30:29;1.83;;;1.70;;
2211;SDS011;48849;48.758;9.158;2024-02-15T03:32:57;4.13;;;2.00;;
2211;SDS011;48849;48.758;9.158;2024-02-15T03:35:26;2.60;;;1.90;;
2211;SDS011;48849;48.758;9.158;2024-02-15T03:37:56;2.35;;;2.03;;
2211;SDS011;48849;48.758;9.158;2024-02-15T03:40:23;4.68;;;1.70;;
2211;SDS011;48849;48.758;9.158;2024-02-15T03:42:51;5.10;;;2.42;;
2211;SDS011;48849;48.758;9.158;2024-02-15T03:45:18;5.32;;;1.80;;
2211;SDS011;48849;48.758;9.158;2024-02-15T03:47:45;4.10;;;2.00;;
2211;SDS011;48849;48.758;9.158;2024-02-15T03:50:12;2.63;;;1.90;;
2211;SDS011;48849;48.758;9.158;2024-02-15T03:52:41;1.90;;;1.67;;
2211;SDS011;48849;48.758;9.158;2024-02-15T03:55:10;2.70;;;2.30;;
2211;SDS011;48849;48.758;9.158;2024-02-15T03:57:37;3.40;;;2.47;;
2211;SDS011;48849;48.758;9.158;2024-02-15T04:00:06;2.60;;;2.10;;
2211;SDS011;48849;48.758;9.158;2024-02-15T04:02:36;4.05;;;2.13;;
2211;SDS011;48849;48.758;9.158;2024-02-15T04:05:05;2.63;;;2.00;;
2211;SDS011;48849;48.758;9.158;2024-02-15T04:07:34;3.13;;;1.60;;
2211;SDS011;48849;48.758;9.158;2024-02-15T04:10:04;8.15;;;2.20;;
2211;SDS011;48849;48.758;9.158;2024-02-15T04:12:33;2.08;;;1.80;;
2211;SDS011;48849;48.758;9.158;2024-02-15T04:15:00;3.10;;;2.00;;
2211;SDS011;48849;48.758;9.158;2024-02-15T04:17:30;2.25;;;1.92;;
2211;SDS011;48849;48.758;9.158;2024-02-15T04:20:00;2.20;;;2.00;;
2211;SDS011;48849;48.758;9.158;2024-02-15T04:22:29;3.20;;;1.60;;
2211;SDS011;48849;48.758;9.158;2024-02-15T04:25:02;4.03;;;2.03;;
2211;SDS011;48849;48.758;9.158;2024-02-15T04:27:32;6.65;;;2.30;;
2211;SDS011;48849;48.758;9.158;2024-02-15T04:29:59;3.50;;;1.95;;
2211;SDS011;48849;48.758;9.158;2024-02-15T04:32:27;3.15;;;2.58;;
2211;SDS011;48849;48.758;9.158;2024-02-15T04:34:58;4.00;;;2.38;;
2211;SDS011;48849;48.758;9.158;2024-02-15T04:37:25;2.03;;;1.80;;
2211;SDS011;48849;48.758;9.158;2024-02-15T04:39:54;3.05;;;1.88;;
2211;SDS011;48849;48.758;9.158;2024-02-15T04:42:22;2.25;;;1.63;;
2211;SDS011;48849;48.758;9.158;2024-02-15T04:44:51;2.78;;;1.40;;
2211;SDS011;48849;48.758;9.158;2024-02-15T04:47:19;4.90;;;2.10;;
2211;SDS011;48849;48.758;9.158;2024-02-15T04:49:46;4.55;;;2.35;;
2211;SDS011;48849;48.758;9.158;2024-02-15T04:52:13;2.47;;;2.13;;
2211;SDS011;48849;48.758;9.158;2024-02-15T04:54:42;3.63;;;2.20;;
2211;SDS011;48849;48.758;9.158;2024-02-15T04:57:10;3.25;;;2.28;;
2211;SDS011;48849;48.758;9.158;2024-02-15T04:59:39;3.65;;;2.30;;
2211;SDS011;48849;48.758;9.158;2024-02-15T05:02:12;5.10;;;2.20;;
2211;SDS011;48849;48.758;9.158;2024-02-15T05:04:38;5.72;;;2.17;;
2211;SDS011;48849;48.758;9.158;2024-02-15T05:07:07;2.67;;;1.88;;
2211;SDS011;48849;48.758;9.158;2024-02-15T05:09:34;2.00;;;1.77;;
2211;SDS011;48849;48.758;9.158;2024-02-15T05:12:01;2.30;;;1.75;;
2211;SDS011;48849;48.758;9.158;2024-02-15T05:14:29;4.18;;;2.10;;
2211;SDS011;48849;48.758;9.158;2024-02-15T05:16:57;2.80;;;2.30;;
2211;SDS011;48849;48.758;9.158;2024-02-15T05:19:24;1.80;;;1.50;;
2211;SDS011;48849;48.758;9.158;2024-02-15T05:21:51;3.67;;;2.35;;
2211;SDS011;48849;48.758;9.158;2024-02-15T05:24:20;5.07;;;2.30;;
2211;SDS011;48849;48.758;9.158;2024-02-15T05:26:47;2.38;;;2.08;;
2211;SDS011;48849;48.758;9.158;2024-02-15T05:29:13;3.83;;;2.00;;
2211;SDS011;48849;48.758;9.158;2024-02-15T05:31:41;1.98;;;1.77;;
2211;SDS011;48849;48.758;9.158;2024-02-15T05:34:10;2.50;;;2.30;;
2211;SDS011;48849;48.758;9.158;2024-02-15T05:36:37;2.45;;;1.80;;
2211;SDS011;48849;48.758;9.158;2024-02-15T05:39:04;2.10;;;1.90;;
2211;SDS011;48849;48.758;9.158;2024-02-15T05:41:32;3.05;;;2.20;;
2211;SDS011;48849;48.758;9.158;2024-02-15T05:43:59;4.25;;;2.03;;
2211;SDS011;48849;48.758;9.158;2024-02-15T05:46:29;2.30;;;1.90;;
2211;SDS011;48849;48.758;9.158;2024-02-15T05:48:56;2.78;;;1.90;;
2211;SDS011;48849;48.758;9.158;2024-02-15T05:51:24;6.43;;;2.05;;
2211;SDS011;48849;48.758;9.158;2024-02-15T05:53:51;3.58;;;2.58;;
2211;SDS011;48849;48.758;9.158;2024-02-15T05:56:23;3.38;;;2.10;;
2211;SDS011;48849;48.758;9.158;2024-02-15T05:58:51;3.65;;;1.98;;
2211;SDS011;48849;48.758;9.158;2024-02-15T06:01:17;3.03;;;2.10;;
2211;SDS011;48849;48.758;9.158;2024-02-15T06:03:44;2.35;;;1.90;;
2211;SDS011;48849;48.758;9.158;2024-02-15T06:06:13;4.30;;;1.80;;
2211;SDS011;48849;48.758;9.158;2024-02-15T06:08:41;3.17;;;2.13;;
2211;SDS011;48849;48.758;9.158;2024-02-15T06:11:08;3.85;;;2.00;;
2211;SDS011;48849;48.758;9.158;2024-02-15T06:13:35;3.75;;;2.15;;
2211;SDS011;48849;48.758;9.158;2024-02-15T06:16:03;2.40;;;2.10;;
2211;SDS011;48849;48.758;9.158;2024-02-15T06:18:34;4.10;;;2.20;;
2211;SDS011;48849;48.758;9.158;2024-02-15T06:21:02;3.60;;;2.20;;
2211;SDS011;48849;48.758;9.158;2024-02-15T06:23:30;2.40;;;1.80;;
2211;SDS011;48849;48.758;9.158;2024-02-15T06:25:59;4.15;;;2.15;;
2211;SDS011;48849;48.758;9.158;2024-02-15T06:28:27;5.03;;;2.25;;
2211;SDS011;48849;48.758;9.158;2024-02-15T06:31:12;2.35;;;1.90;;
2211;SDS011;48849;48.758;9.158;2024-02-15T06:33:57;4.40;;;1.85;;
2211;SDS011;48849;48.758;9.158;2024-02-15T06:39:29;4.15;;;2.13;;
2211;SDS011;48849;48.758;9.158;2024-02-15T06:42:08;5.82;;;2.30;;
2211;SDS011;48849;48.758;9.158;2024-02-15T06:44:37;4.60;;;2.60;;
2211;SDS011;48849;48.758;9.158;2024-02-15T06:47:05;2.65;;;2.25;;
2211;SDS011;48849;48.758;9.158;2024-02-15T06:49:34;4.70;;;2.50;;
2211;SDS011;48849;48.758;9.158;2024-02-15T06:52:01;3.63;;;2.60;;
2211;SDS011;48849;48.758;9.158;2024-02-15T06:54:28;6.68;;;3.00;;
2211;SDS011;48849;48.758;9.158;2024-02-15T06:56:55;4.00;;;2.63;;
2211;SDS011;48849;48.758;9.158;2024-02-15T06:59:24;3.33;;;2.50;;
2211;SDS011;48849;48.758;9.158;2024-02-15T07:01:51;2.45;;;2.25;;
2211;SDS011;48849;48.758;9.158;2024-02-15T07:04:17;4.70;;;2.20;;
2211;SDS011;48849;48.758;9.158;2024-02-15T07:06:45;4.53;;;2.80;;
2211;SDS011;48849;48.758;9.158;2024-02-15T07:09:13;3.35;;;2.42;;
2211;SDS011;48849;48.758;9.158;2024-02-15T07:11:41;4.53;;;2.35;;
2211;SDS011;48849;48.758;9.158;2024-02-15T07:14:08;3.30;;;2.55;;
2211;SDS011;48849;48.758;9.158;2024-02-15T07:16:37;5.30;;;2.67;;
2211;SDS011;48849;48.758;9.158;2024-02-15T07:19:03;5.57;;;2.70;;
2211;SDS011;48849;48.758;9.158;2024-02-15T07:21:34;6.40;;;2.90;;
2211;SDS011;48849;48.758;9.158;2024-02-15T07:24:01;6.85;;;3.20;;
2211;SDS011;48849;48.758;9.158;2024-02-15T07:26:29;5.18;;;2.60;;
2211;SDS011;48849;48.758;9.158;2024-02-15T07:28:58;5.68;;;2.95;;
2211;SDS011;48849;48.758;9.158;2024-02-15T07:31:27;4.00;;;2.33;;
2211;SDS011;48849;48.758;9.158;2024-02-15T07:33:56;4.40;;;2.63;;
2211;SDS011;48849;48.758;9.158;2024-02-15T07:36:23;5.28;;;2.47;;
2211;SDS011;48849;48.758;9.158;2024-02-15T07:38:51;5.30;;;2.67;;
2211;SDS011;48849;48.758;9.158;2024-02-15T07:41:18;5.75;;;2.60;;
2211;SDS011;48849;48.758;9.158;2024-02-15T07:43:47;2.92;;;2.50;;
2211;SDS011;48849;48.758;9.158;2024-02-15T07:46:14;3.25;;;2.38;;
2211;SDS011;48849;48.758;9.158;2024-02-15T07:48:41;4.82;;;2.33;;
2211;SDS011;48849;48.758;9.158;2024-02-15T07:51:12;2.95;;;2.05;;
2211;SDS011;48849;48.758;9.158;2024-02-15T07:53:40;4.53;;;2.80;;
2211;SDS011;48849;48.758;9.158;2024-02-15T07:56:07;3.03;;;2.50;;
2211;SDS011;48849;48.758;9.158;2024-02-15T07:58:37;4.57;;;3.00;;
2211;SDS011;48849;48.758;9.158;2024-02-15T08:01:06;4.60;;;2.55;;
2211;SDS011;48849;48.758;9.158;2024-02-15T08:03:34;5.40;;;3.30;;
2211;SDS011;48849;48.758;9.158;2024-02-15T08:06:01;3.85;;;3.03;;
2211;SDS011;48849;48.758;9.158;2024-02-15T08:08:33;7.25;;;4.15;;
2211;SDS011;48849;48.758;9.158;2024-02-15T08:11:01;6.95;;;4.35;;
2211;SDS011;48849;48.758;9.158;2024-02-15T08:13:28;5.65;;;3.85;;
2211;SDS011;48849;48.758;9.158;2024-02-15T08:15:56;5.13;;;3.70;;
2211;SDS011;48849;48.758;9.158;2024-02-15T08:18:23;3.97;;;3.30;;
2211;SDS011;48849;48.758;9.158;2024-02-15T08:20:50;6.93;;;3.28;;
2211;SDS011;48849;48.758;9.158;2024-02-15T08:23:17;5.65;;;3.47;;
2211;SDS011;48849;48.758;9.158;2024-02-15T08:25:45;4.35;;;2.97;;
2211;SDS011;48849;48.758;9.158;2024-02-15T08:28:12;8.27;;;2.50;;
2211;SDS011;48849;48.758;9.158;2024-02-15T08:30:40;6.30;;;2.67;;
2211;SDS011;48849;48.758;9.158;2024-02-15T08:33:06;3.83;;;2.35;;
2211;SDS011;48849;48.758;9.158;2024-02-15T08:35:36;2.55;;;2.22;;
2211;SDS011;48849;48.758;9.158;2024-02-15T08:38:05;4.28;;;2.60;;
2211;SDS011;48849;48.758;9.158;2024-02-15T08:40:32;2.90;;;2.22;;
2211;SDS011;48849;48.758;9.158;2024-02-15T08:43:00;3.20;;;2.33;;
2211;SDS011;48849;48.758;9.158;2024-02-15T08:45:28;2.63;;;1.80;;
2211;SDS011;48849;48.758;9.158;2024-02-15T08:47:55;2.10;;;1.80;;
2211;SDS011;48849;48.758;9.158;2024-02-15T08:50:22;6.60;;;2.33;;
2211;SDS011;48849;48.758;9.158;2024-02-15T08:52:49;2.90;;;2.17;;
2211;SDS011;48849;48.758;9.158;2024-02-15T08:55:16;8.82;;;2.80;;
2211;SDS011;48849;48.758;9.158;2024-02-15T08:57:45;6.25;;;3.03;;
2211;SDS011;48849;48.758;9.158;2024-02-15T09:00:14;4.45;;;3.17;;
2211;SDS011;48849;48.758;9.158;2024-02-15T09:02:42;4.15;;;2.30;;
2211;SDS011;48849;48.758;9.158;2024-02-15T09:05:09;3.95;;;2.63;;
2211;SDS011;48849;48.758;9.158;2024-02-15T09:07:39;4.18;;;2.47;;
2211;SDS011;48849;48.758;9.158;2024-02-15T09:10:06;5.47;;;3.67;;
2211;SDS011;48849;48.758;9.158;2024-02-15T09:12:34;3.05;;;2.55;;
2211;SDS011;48849;48.758;9.158;2024-02-15T09:15:03;6.00;;;2.28;;
2211;SDS011;48849;48.758;9.158;2024-02-15T09:17:32;3.00;;;2.17;;
2211;SDS011;48849;48.758;9.158;2024-02-15T09:20:04;3.90;;;2.30;;
2211;SDS011;48849;48.758;9.158;2024-02-15T09:22:32;2.88;;;2.40;;
2211;SDS011;48849;48.758;9.158;2024-02-15T09:25:01;2.88;;;2.17;;
2211;SDS011;48849;48.758;9.158;2024-02-15T09:27:28;5.55;;;2.60;;
2211;SDS011;48849;48.758;9.158;2024-02-15T09:29:55;5.57;;;3.10;;
2211;SDS011;48849;48.758;9.158;2024-02-15T09:32:21;3.95;;;2.35;;
2211;SDS011;48849;48.758;9.158;2024-02-15T09:34:50;3.78;;;2.60;;
2211;SDS011;48849;48.758;9.158;2024-02-15T09:37:16;5.93;;;2.60;;
2211;SDS011;48849;48.758;9.158;2024-02-15T09:39:43;4.10;;;2.45;;
2211;SDS011;48849;48.758;9.158;2024-02-15T09:42:11;5.22;;;2.55;;
2211;SDS011;48849;48.758;9.158;2024-02-15T09:44:38;5.65;;;2.40;;
2211;SDS011;48849;48.758;9.158;2024-02-15T09:47:09;3.00;;;2.40;;
2211;SDS011;48849;48.758;9.158;2024-02-15T09:49:40;3.92;;;2.97;;
2211;SDS011;48849;48.758;9.158;2024-02-15T09:52:09;4.32;;;2.67;;
2211;SDS011;48849;48.758;9.158;2024-02-15T09:54:37;4.55;;;2.80;;
2211;SDS011;48849;48.758;9.158;2024-02-15T09:57:08;3.05;;;2.65;;
2211;SDS011;48849;48.758;9.158;2024-02-15T09:59:36;3.80;;;2.60;;
2211;SDS011;48849;48.758;9.158;2024-02-15T10:02:04;5.07;;;2.70;;
2211;SDS011;48849;48.758;9.158;2024-02-15T10:04:35;3.35;;;2.38;;
2211;SDS011;48849;48.758;9.158;2024-02-15T10:07:02;4.20;;;2.40;;
2211;SDS011;48849;48.758;9.158;2024-02-15T10:09:30;5.78;;;2.42;;
2211;SDS011;48849;48.758;9.158;2024-02-15T10:11:58;5.22;;;2.75;;
2211;SDS011;48849;48.758;9.158;2024-02-15T10:14:26;4.75;;;2.50;;
2211;SDS011;48849;48.758;9.158;2024-02-15T10:16:54;3.47;;;2.05;;
2211;SDS011;48849;48.758;9.158;2024-02-15T10:19:22;3.42;;;2.10;;
2211;SDS011;48849;48.758;9.158;2024-02-15T10:21:51;2.88;;;2.30;;
2211;SDS011;48849;48.758;9.158;2024-02-15T10:24:20;4.45;;;2.20;;
2211;SDS011;48849;48.758;9.158;2024-02-15T10:26:49;3.13;;;2.15;;
2211;SDS011;48849;48.758;9.158;2024-02-15T10:29:18;3.47;;;2.05;;
2211;SDS011;48849;48.758;9.158;2024-02-15T10:31:53;3.20;;;2.40;;
2211;SDS011;48849;48.758;9.158;2024-02-15T10:34:20;3.88;;;2.40;;
2211;SDS011;48849;48.758;9.158;2024-02-15T10:36:48;4.70;;;1.83;;
2211;SDS011;48849;48.758;9.158;2024-02-15T10:39:15;2.42;;;1.50;;
2211;SDS011;48849;48.758;9.158;2024-02-15T10:41:44;7.53;;;1.63;;
2211;SDS011;48849;48.758;9.158;2024-02-15T10:44:17;5.32;;;1.80;;
2211;SDS011;48849;48.758;9.158;2024-02-15T10:46:45;3.42;;;1.70;;
2211;SDS011;48849;48.758;9.158;2024-02-15T10:49:16;1.77;;;1.58;;
2211;SDS011;48849;48.758;9.158;2024-02-15T10:51:44;2.10;;;1.45;;
2211;SDS011;48849;48.758;9.158;2024-02-15T10:54:15;4.65;;;1.65;;
2211;SDS011;48849;48.758;9.158;2024-02-15T10:56:49;3.38;;;2.00;;
2211;SDS011;48849;48.758;9.158;2024-02-15T10:59:23;4.45;;;2.20;;
2211;SDS011;48849;48.758;9.158;2024-02-15T11:01:58;4.47;;;3.05;;
2211;SDS011;48849;48.758;9.158;2024-02-15T11:04:29;4.45;;;2.00;;
2211;SDS011;48849;48.758;9.158;2024-02-15T11:06:58;3.83;;;2.20;;
2211;SDS011;48849;48.758;9.158;2024-02-15T11:09:26;5.72;;;2.13;;
2211;SDS011;48849;48.758;9.158;2024-02-15T11:11:55;2.20;;;1.70;;
2211;SDS011;48849;48.758;9.158;2024-02-15T11:14:24;3.20;;;1.73;;
2211;SDS011;48849;48.758;9.158;2024-02-15T11:16:55;1.98;;;1.42;;
2211;SDS011;48849;48.758;9.158;2024-02-15T11:19:41;4.57;;;1.83;;
2211;SDS011;48849;48.758;9.158;2024-02-15T11:22:12;5.05;;;2.08;;
2211;SDS011;48849;48.758;9.158;2024-02-15T11:24:47;4.38;;;2.08;;
2211;SDS011;48849;48.758;9.158;2024-02-15T11:27:23;3.80;;;2.30;;
2211;SDS011;48849;48.758;9.158;2024-02-15T11:29:54;5.72;;;2.30;;
2211;SDS011;48849;48.758;9.158;2024-02-15T11:32:36;5.63;;;2.15;;
2211;SDS011;48849;48.758;9.158;2024-02-15T11:35:05;4.18;;;2.15;;
2211;SDS011;48849;48.758;9.158;2024-02-15T11:37:54;4.53;;;2.03;;
2211;SDS011;48849;48.758;9.158;2024-02-15T11:40:25;3.55;;;2.22;;
2211;SDS011;48849;48.758;9.158;2024-02-15T11:42:54;2.83;;;2.50;;
2211;SDS011;48849;48.758;9.158;2024-02-15T11:45:23;3.35;;;2.22;;
2211;SDS011;48849;48.758;9.158;2024-02-15T11:47:52;4.57;;;2.88;;
2211;SDS011;48849;48.758;9.158;2024-02-15T11:50:21;6.50;;;2.70;;
2211;SDS011;48849;48.758;9.158;2024-02-15T11:52:49;2.35;;;1.98;;
2211;SDS011;48849;48.758;9.158;2024-02-15T11:55:20;4.13;;;2.17;;
2211;SDS011;48849;48.758;9.158;2024-02-15T11:57:54;3.05;;;2.63;;
2211;SDS011;48849;48.758;9.158;2024-02-15T12:00:29;3.22;;;2.67;;
2211;SDS011;48849;48.758;9.158;2024-02-15T12:03:14;4.65;;;2.92;;
2211;SDS011;48849;48.758;9.158;2024-02-15T12:05:59;3.50;;;2.60;;
2211;SDS011;48849;48.758;9.158;2024-02-15T12:08:44;3.80;;;2.70;;
2211;SDS011;48849;48.758;9.158;2024-02-15T12:11:38;3.70;;;2.80;;
2211;SDS011;48849;48.758;9.158;2024-02-15T12:14:23;4.72;;;3.08;;
2211;SDS011;48849;48.758;9.158;2024-02-15T12:17:10;5.75;;;2.65;;
2211;SDS011;48849;48.758;9.158;2024-02-15T12:19:55;4.40;;;2.58;;
2211;SDS011;48849;48.758;9.158;2024-02-15T12:22:23;3.08;;;2.30;;
2211;SDS011;48849;48.758;9.158;2024-02-15T12:24:53;3.08;;;1.60;;
2211;SDS011;48849;48.758;9.158;2024-02-15T12:27:21;4.00;;;1.92;;
2211;SDS011;48849;48.758;9.158;2024-02-15T12:29:52;3.17;;;2.08;;
2211;SDS011;48849;48.758;9.158;2024-02-15T12:32:25;3.78;;;2.40;;
2211;SDS011;48849;48.758;9.158;2024-02-15T12:34:52;5.88;;;2.15;;
2211;SDS011;48849;48.758;9.158;2024-02-15T12:37:20;6.43;;;2.20;;
2211;SDS011;48849;48.758;9.158;2024-02-15T12:39:48;3.55;;;2.13;;
2211;SDS011;48849;48.758;9.158;2024-02-15T12:42:16;5.75;;;2.67;;
2211;SDS011;48849;48.758;9.158;2024-02-15T12:44:45;7.47;;;2.60;;
2211;SDS011;48849;48.758;9.158;2024-02-15T12:47:21;4.93;;;2.63;;
2211;SDS011;48849;48.758;9.158;2024-02-15T12:49:50;3.15;;;2.00;;
2211;SDS011;48849;48.758;9.158;2024-02-15T12:52:32;4.05;;;2.40;;
2211;SDS011;48849;48.758;9.158;2024-02-15T12:55:11;3.78;;;2.05;;
2211;SDS011;48849;48.758;9.158;2024-02-15T12:57:45;3.40;;;2.47;;
2211;SDS011;48849;48.758;9.158;2024-02-15T13:00:16;5.35;;;2.92;;
2211;SDS011;48849;48.758;9.158;2024-02-15T13:02:47;6.80;;;5.60;;
2211;SDS011;48849;48.758;9.158;2024-02-15T13:05:14;9.55;;;7.10;;
2211;SDS011;48849;48.758;9.158;2024-02-15T13:07:43;11.45;;;8.88;;
2211;SDS011;48849;48.758;9.158;2024-02-15T13:10:10;9.50;;;7.72;;
2211;SDS011;48849;48.758;9.158;2024-02-15T13:12:39;8.93;;;5.53;;
2211;SDS011;48849;48.758;9.158;2024-02-15T13:15:08;8.52;;;4.40;;
2211;SDS011;48849;48.758;9.158;2024-02-15T13:17:40;8.65;;;4.72;;
2211;SDS011;48849;48.758;9.158;2024-02-15T13:20:09;6.15;;;4.43;;
2211;SDS011;48849;48.758;9.158;2024-02-15T13:22:38;9.98;;;5.18;;
2211;SDS011;48849;48.758;9.158;2024-02-15T13:25:06;8.27;;;5.85;;
2211;SDS011;48849;48.758;9.158;2024-02-15T13:27:33;12.27;;;7.18;;
2211;SDS011;48849;48.758;9.158;2024-02-15T13:30:01;15.15;;;11.70;;
2211;SDS011;48849;48.758;9.158;2024-02-15T13:32:28;17.33;;;12.40;;
2211;SDS011;48849;48.758;9.158;2024-02-15T13:34:55;15.50;;;11.73;;
2211;SDS011;48849;48.758;9.158;2024-02-15T13:37:25;13.45;;;10.65;;
2211;SDS011;48849;48.758;9.158;2024-02-15T13:39:52;16.33;;;11.60;;
2211;SDS011;48849;48.758;9.158;2024-02-15T13:42:20;15.35;;;11.88;;
2211;SDS011;48849;48.758;9.158;2024-02-15T13:44:46;16.15;;;11.20;;
2211;SDS011;48849;48.758;9.158;2024-02-15T13:47:14;28.73;;;21.30;;
2211;SDS011;48849;48.758;9.158;2024-02-15T13:49:41;33.15;;;25.35;;
2211;SDS011;48849;48.758;9.158;2024-02-15T13:52:09;34.63;;;25.63;;
2211;SDS011;48849;48.758;9.158;2024-02-15T13:54:37;28.15;;;20.23;;
2211;SDS011;48849;48.758;9.158;2024-02-15T13:57:04;23.65;;;17.38;;
2211;SDS011;48849;48.758;9.158;2024-02-15T13:59:32;28.75;;;21.60;;
2211;SDS011;48849;48.758;9.158;2024-02-15T14:01:59;25.45;;;20.63;;
2211;SDS011;48849;48.758;9.158;2024-02-15T14:04:28;25.33;;;19.77;;
2211;SDS011;48849;48.758;9.158;2024-02-15T14:06:57;20.35;;;15.40;;
2211;SDS011;48849;48.758;9.158;2024-02-15T14:09:24;19.45;;;14.95;;
2211;SDS011;48849;48.758;9.158;2024-02-15T14:11:53;29.17;;;23.27;;
2211;SDS011;48849;48.758;9.158;2024-02-15T14:14:20;24.23;;;19.70;;
2211;SDS011;48849;48.758;9.158;2024-02-15T14:16:47;27.52;;;20.92;;
2211;SDS011;48849;48.758;9.158;2024-02-15T14:19:14;27.67;;;23.83;;
2211;SDS011;48849;48.758;9.158;2024-02-15T14:21:42;23.50;;;19.50;;
2211;SDS011;48849;48.758;9.158;2024-02-15T14:24:10;23.80;;;18.88;;
2211;SDS011;48849;48.758;9.158;2024-02-15T14:26:37;19.25;;;15.40;;
2211;SDS011;48849;48.758;9.158;2024-02-15T14:29:06;16.30;;;12.23;;
2211;SDS011;48849;48.758;9.158;2024-02-15T14:31:34;16.05;;;12.75;;
2211;SDS011;48849;48.758;9.158;2024-02-15T14:34:19;14.95;;;11.13;;
2211;SDS011;48849;48.758;9.158;2024-02-15T14:36:46;14.52;;;9.35;;
2211;SDS011;48849;48.758;9.158;2024-02-15T14:39:14;12.95;;;11.55;;
2211;SDS011;48849;48.758;9.158;2024-02-15T14:41:41;12.18;;;10.40;;
2211;SDS011;48849;48.758;9.158;2024-02-15T14:44:10;13.95;;;10.80;;
2211;SDS011;48849;48.758;9.158;2024-02-15T14:46:38;14.52;;;11.02;;
2211;SDS011;48849;48.758;9.158;2024-02-15T14:49:05;16.83;;;10.65;;
2211;SDS011;48849;48.758;9.158;2024-02-15T14:51:33;20.00;;;10.40;;
2211;SDS011;48849;48.758;9.158;2024-02-15T14:54:02;17.08;;;9.25;;
2211;SDS011;48849;48.758;9.158;2024-02-15T14:56:29;15.02;;;8.35;;
2211;SDS011;48849;48.758;9.158;2024-02-15T14:58:58;12.52;;;7.55;;
2211;SDS011;48849;48.758;9.158;2024-02-15T15:01:27;11.32;;;8.43;;
2211;SDS011;48849;48.758;9.158;2024-02-15T15:03:55;20.73;;;14.38;;
2211;SDS011;48849;48.758;9.158;2024-02-15T15:06:23;18.67;;;12.50;;
2211;SDS011;48849;48.758;9.158;2024-02-15T15:09:09;21.98;;;13.93;;
2211;SDS011;48849;48.758;9.158;2024-02-15T15:11:54;17.52;;;13.40;;